Current | Forecast
Updated: 5:40 AM JST on August 24, 2017
Observed at Asahikawa AB, Japan
Temperature 68°F
Humidity 88%
Dew Point 64°F
Wind Variable at 2 mph
Pressure 29.65 in (Falling)
Conditions Mostly Cloudy
Visibility 6.2 miles
UV 0 out of 16
Clouds (FEW) : 300 ft
Scattered Clouds (SCT) : 5000 ft
Mostly Cloudy (BKN) : 15000 ft
Yesterday's Maximum 72°F
Yesterday's Minimum 70°F approx.
Yesterday's Cooling Degree Days 6 approx.
Sunrise4:46 AM JST
Sunset6:23 PM JST
Moon Rise7:09 AM JST
Moon Set7:50 PM JST
Moon PhaseMoon Phase
Waxing Crescent
Raw METARSPECI RJCA 232040Z VRB02KT 9999 FEW003 SCT050 BKN150 20/18 Q1004 RMK 1ST003 4SC050 7AC150 A2965


Monday
. High: 66° F.
Tuesday
. High: 66° F.
Wednesday
. High: 57° F.
Thursday
. High: 59° F.
Friday
. High: 57° F.
Saturday
. High: 62° F.
Sunday
. High: 55° F.
Monday
. High: 53° F.

Units: English | Metric

Find the Weather for any City, State or Zipcode, or Country:

U.S. State List | Severe Weather | Tropical Storms | Ski Conditions
United States | Canada | Central America | South America | Asia | Europe | Australia | Africa | Islands

Weather Underground

© Copyright 2017
The Weather Company, LLC